Time;durP1;ratioP1;P1;durP2;ratioP2;P2;SDS_P1;SDS_P2;PMS_P1;PMS_P2;Temp;Humidity;BMP_temperature;BMP_pressure;BME280_temperature;BME280_humidity;BME280_pressure;Samples;Min_cycle;Max_cycle;Signal;HPM_P1;HPM_P2
2022/02/09 00:01:24;;;;;;;9.77;6.00;;;;;;;;;;4392408;32;20157;-60
2022/02/09 00:04:06;;;;;;;9.43;6.40;;;;;;;;;;4404949;32;20084;-60
2022/02/09 00:09:04;;;;;;;10.27;6.50;;;;;;;;;;4404478;32;20120;-61
2022/02/09 00:11:38;;;;;;;9.25;6.55;;;;;;;;;;4392428;32;20076;-60
2022/02/09 00:14:17;;;;;;;9.88;6.43;;;;;;;;;;4404547;32;20084;-60
2022/02/09 00:24:58;;;;;;;9.73;6.57;;;;;;;;;;4407709;32;20085;-60
2022/02/09 00:27:47;;;;;;;8.63;5.80;;;;;;;;;;4406528;32;20070;-60
2022/02/09 00:31:30;;;;;;;8.82;6.35;;;;;;;;;;4406214;32;20080;-59
2022/02/09 00:33:29;;;;;;;9.75;5.87;;;;;;;;;;4385664;32;20080;-60
2022/02/09 01:57:10;;;;;;;6.62;4.93;;;;;;;;;;4406014;32;20144;-60
2022/02/09 01:59:37;;;;;;;7.70;5.47;;;;;;;;;;4381008;32;20084;-60
2022/02/09 02:02:05;;;;;;;7.22;4.85;;;;;;;;;;4381343;32;20215;-60
2022/02/09 02:04:32;;;;;;;6.87;4.72;;;;;;;;;;4393310;32;20503;-61
2022/02/09 02:07:02;;;;;;;6.82;4.80;;;;;;;;;;4393511;32;20073;-61
2022/02/09 02:09:34;;;;;;;7.55;4.97;;;;;;;;;;4393215;32;20076;-60
2022/02/09 02:12:10;;;;;;;7.18;4.68;;;;;;;;;;4405569;32;20154;-60
2022/02/09 02:14:43;;;;;;;7.68;5.43;;;;;;;;;;4394222;32;20157;-61
2022/02/09 02:20:12;;;;;;;6.95;4.90;;;;;;;;;;4405771;32;20084;-60
2022/02/09 02:22:48;;;;;;;7.82;5.25;;;;;;;;;;4404980;32;20169;-61
2022/02/09 02:25:42;;;;;;;7.18;4.80;;;;;;;;;;4405678;32;20089;-59
2022/02/09 02:28:30;;;;;;;8.02;5.25;;;;;;;;;;4395400;32;20571;-59
2022/02/09 02:39:33;;;;;;;7.45;5.05;;;;;;;;;;4406642;32;20163;-61
2022/02/09 03:09:05;;;;;;;7.35;5.05;;;;;;;;;;4406340;32;20077;-60
2022/02/09 03:11:50;;;;;;;7.55;4.95;;;;;;;;;;4406433;32;20069;-60
2022/02/09 03:14:24;;;;;;;7.40;4.75;;;;;;;;;;4394076;32;20487;-59
2022/02/09 03:16:58;;;;;;;7.15;4.70;;;;;;;;;;4393356;32;20081;-60
2022/02/09 03:22:48;;;;;;;8.23;4.75;;;;;;;;;;4393695;32;20085;-60
2022/02/09 03:30:56;;;;;;;6.20;4.35;;;;;;;;;;4392565;32;20150;-61
2022/02/09 03:31:04;;;;;;;8.18;5.05;;;;;;;;;;4406618;32;20073;-59
2022/02/09 03:50:17;;;;;;;7.30;4.75;;;;;;;;;;4393280;32;20070;-60
2022/02/09 03:55:23;;;;;;;7.47;5.12;;;;;;;;;;4394882;32;20100;-61
2022/02/09 03:57:50;;;;;;;6.07;3.87;;;;;;;;;;4407629;32;20144;-60
2022/02/09 04:00:19;;;;;;;7.18;4.82;;;;;;;;;;4406117;32;20069;-59
2022/02/09 04:02:54;;;;;;;7.15;4.40;;;;;;;;;;4393619;32;20164;-59
2022/02/09 04:05:21;;;;;;;7.10;4.50;;;;;;;;;;4380429;32;20154;-60
2022/02/09 04:07:48;;;;;;;6.45;4.10;;;;;;;;;;4392728;32;20172;-61
2022/02/09 04:10:21;;;;;;;6.55;4.65;;;;;;;;;;4380325;32;20143;-60
2022/02/09 04:18:01;;;;;;;5.07;3.45;;;;;;;;;;4407575;32;20077;-59
2022/02/09 04:36:59;;;;;;;5.78;3.90;;;;;;;;;;4407476;32;20073;-60
2022/02/09 04:39:34;;;;;;;5.10;3.35;;;;;;;;;;4407718;32;20101;-61
2022/02/09 04:56:28;;;;;;;5.90;3.47;;;;;;;;;;4408201;32;20089;-62
2022/02/09 04:58:27;;;;;;;4.85;3.30;;;;;;;;;;4401244;32;20084;-60
2022/02/09 05:01:07;;;;;;;5.45;3.12;;;;;;;;;;4382994;32;20086;-60
2022/02/09 05:27:52;;;;;;;4.75;3.15;;;;;;;;;;4407098;32;20095;-60
2022/02/09 05:30:19;;;;;;;4.93;2.87;;;;;;;;;;4408410;32;20158;-61
2022/02/09 05:32:47;;;;;;;4.00;2.85;;;;;;;;;;4393725;32;20478;-59
2022/02/09 05:35:15;;;;;;;5.07;2.75;;;;;;;;;;4406333;32;20089;-60
2022/02/09 05:37:42;;;;;;;4.15;2.85;;;;;;;;;;4393569;32;20068;-60
2022/02/09 05:40:09;;;;;;;4.35;2.72;;;;;;;;;;4394226;32;20101;-59
2022/02/09 05:42:36;;;;;;;3.80;2.12;;;;;;;;;;4406187;32;20085;-59
2022/02/09 05:45:07;;;;;;;4.35;2.97;;;;;;;;;;4407871;32;20077;-60
2022/02/09 05:50:15;;;;;;;5.07;2.33;;;;;;;;;;4405822;32;20157;-60
2022/02/09 05:58:14;;;;;;;5.65;2.87;;;;;;;;;;4395594;32;20093;-59
2022/02/09 06:00:47;;;;;;;4.22;2.80;;;;;;;;;;4381671;32;20540;-60
2022/02/09 06:03:14;;;;;;;3.80;2.92;;;;;;;;;;4394582;32;20143;-59
2022/02/09 06:05:41;;;;;;;3.95;2.83;;;;;;;;;;4380473;32;20516;-60
2022/02/09 06:08:08;;;;;;;5.62;3.12;;;;;;;;;;4380854;32;20089;-60
2022/02/09 06:10:35;;;;;;;4.40;2.78;;;;;;;;;;4406046;32;20447;-60
2022/02/09 06:13:31;;;;;;;3.92;3.12;;;;;;;;;;4405477;32;20452;-60
2022/02/09 06:16:11;;;;;;;3.75;2.72;;;;;;;;;;4406450;32;20096;-59
2022/02/09 06:21:23;;;;;;;5.10;2.90;;;;;;;;;;4406248;32;20153;-60
2022/02/09 06:23:50;;;;;;;4.80;3.47;;;;;;;;;;4406887;32;20089;-61
2022/02/09 06:26:17;;;;;;;5.00;3.67;;;;;;;;;;4393145;32;20447;-59
2022/02/09 06:28:47;;;;;;;4.87;3.30;;;;;;;;;;4392659;32;20085;-59
2022/02/09 06:31:14;;;;;;;5.20;3.60;;;;;;;;;;4405288;32;20468;-59
2022/02/09 06:33:41;;;;;;;4.75;3.35;;;;;;;;;;4392004;32;20516;-59
2022/02/09 06:36:10;;;;;;;4.93;3.08;;;;;;;;;;4406703;32;20081;-60
2022/02/09 06:38:40;;;;;;;4.75;3.30;;;;;;;;;;4392410;32;20598;-60
2022/02/09 06:41:09;;;;;;;5.57;3.40;;;;;;;;;;4405254;32;20065;-60
2022/02/09 06:43:36;;;;;;;4.80;3.28;;;;;;;;;;4380335;32;20081;-60
2022/02/09 06:46:03;;;;;;;5.68;3.53;;;;;;;;;;4405046;32;20459;-60
2022/02/09 06:48:31;;;;;;;4.57;3.17;;;;;;;;;;4405487;32;20085;-60
2022/02/09 06:51:04;;;;;;;4.45;3.35;;;;;;;;;;4404799;32;20077;-59
2022/02/09 06:53:37;;;;;;;4.65;3.35;;;;;;;;;;4406882;32;20145;-58
2022/02/09 06:56:04;;;;;;;5.25;3.55;;;;;;;;;;4406614;32;20170;-60
2022/02/09 07:01:03;;;;;;;4.72;3.53;;;;;;;;;;4392477;32;20500;-59
2022/02/09 07:03:30;;;;;;;6.72;3.25;;;;;;;;;;4392772;32;20155;-59
2022/02/09 07:05:56;;;;;;;4.10;2.83;;;;;;;;;;4405037;32;20077;-59
2022/02/09 07:08:23;;;;;;;6.22;3.87;;;;;;;;;;4392333;32;20078;-59
2022/02/09 07:10:50;;;;;;;5.55;3.80;;;;;;;;;;4404740;32;20085;-60
2022/02/09 07:13:18;;;;;;;4.47;3.12;;;;;;;;;;4405204;32;20427;-60
2022/02/09 07:15:49;;;;;;;5.30;3.75;;;;;;;;;;4404594;32;20105;-60
2022/02/09 07:18:17;;;;;;;4.78;3.37;;;;;;;;;;4406264;32;20530;-59
2022/02/09 07:23:26;;;;;;;4.85;3.35;;;;;;;;;;4404649;32;20080;-59
2022/02/09 07:26:29;;;;;;;4.82;3.47;;;;;;;;;;4405012;32;20074;-59
2022/02/09 07:28:46;;;;;;;5.00;3.47;;;;;;;;;;4401660;32;20064;-60
2022/02/09 07:31:13;;;;;;;5.53;3.40;;;;;;;;;;4392313;32;20066;-59
2022/02/09 07:33:42;;;;;;;6.37;3.78;;;;;;;;;;4379530;32;20080;-61
2022/02/09 07:36:09;;;;;;;4.97;3.50;;;;;;;;;;4404570;32;20084;-58
2022/02/09 07:38:36;;;;;;;5.97;3.60;;;;;;;;;;4391536;32;20077;-60
2022/02/09 07:41:03;;;;;;;5.95;3.80;;;;;;;;;;4404402;32;20150;-59
2022/02/09 07:49:01;;;;;;;5.40;3.70;;;;;;;;;;4395893;32;20088;-60
2022/02/09 07:56:27;;;;;;;4.95;3.95;;;;;;;;;;4407646;32;20089;-59
2022/02/09 07:58:54;;;;;;;5.15;3.78;;;;;;;;;;4382774;32;20469;-59
2022/02/09 08:01:22;;;;;;;5.18;3.47;;;;;;;;;;4395271;32;20077;-59
2022/02/09 08:03:50;;;;;;;5.85;3.53;;;;;;;;;;4382486;32;20083;-60
2022/02/09 08:06:18;;;;;;;5.18;3.70;;;;;;;;;;4384129;32;20088;-60
2022/02/09 08:08:46;;;;;;;5.03;3.12;;;;;;;;;;4383730;32;20528;-59
2022/02/09 08:11:24;;;;;;;5.87;3.92;;;;;;;;;;4411114;32;20079;-59
2022/02/09 08:30:07;;;;;;;5.57;3.90;;;;;;;;;;4406930;32;20173;-59
2022/02/09 08:32:41;;;;;;;5.90;3.50;;;;;;;;;;4406932;32;20077;-59
2022/02/09 08:35:08;;;;;;;5.68;3.87;;;;;;;;;;4407031;32;20083;-59
2022/02/09 08:37:35;;;;;;;5.35;3.80;;;;;;;;;;4407415;32;20088;-59
2022/02/09 08:40:03;;;;;;;6.30;4.07;;;;;;;;;;4394536;32;20073;-59
2022/02/09 08:42:32;;;;;;;4.70;3.53;;;;;;;;;;4406984;32;20218;-59
2022/02/09 08:44:58;;;;;;;5.97;3.72;;;;;;;;;;4407079;32;20484;-59
2022/02/09 08:47:25;;;;;;;5.57;3.97;;;;;;;;;;4407032;32;20456;-59
2022/02/09 08:49:52;;;;;;;5.12;3.70;;;;;;;;;;4408921;32;20081;-59
2022/02/09 08:52:18;;;;;;;5.72;4.20;;;;;;;;;;4408353;32;20168;-60
2022/02/09 08:54:48;;;;;;;5.68;3.50;;;;;;;;;;4407009;32;20089;-59
2022/02/09 08:57:14;;;;;;;4.35;3.40;;;;;;;;;;4393779;32;20158;-59
2022/02/09 08:59:41;;;;;;;5.45;3.45;;;;;;;;;;4407024;32;20092;-59
2022/02/09 09:02:11;;;;;;;5.62;3.95;;;;;;;;;;4406573;32;20094;-61
2022/02/09 09:04:46;;;;;;;5.35;3.97;;;;;;;;;;4406946;32;20081;-60
2022/02/09 09:07:22;;;;;;;4.47;3.22;;;;;;;;;;4407176;32;20516;-60
2022/02/09 09:10:01;;;;;;;6.00;3.60;;;;;;;;;;4408072;32;20093;-60
2022/02/09 09:40:32;;;;;;;5.32;3.90;;;;;;;;;;4406282;32;20549;-59
2022/02/09 10:00:18;;;;;;;5.50;3.28;;;;;;;;;;4396167;32;20164;-59
2022/02/09 10:03:16;;;;;;;4.30;3.25;;;;;;;;;;4406112;32;20082;-60
2022/02/09 10:34:14;;;;;;;5.25;3.20;;;;;;;;;;4405821;32;20093;-59
2022/02/09 10:36:54;;;;;;;4.03;2.80;;;;;;;;;;4393180;32;20546;-58
2022/02/09 10:39:33;;;;;;;4.75;3.10;;;;;;;;;;4392950;32;20085;-60
2022/02/09 10:45:28;;;;;;;5.00;3.60;;;;;;;;;;4405585;32;20447;-59
2022/02/09 10:47:51;;;;;;;4.37;3.20;;;;;;;;;;4395071;32;20076;-60
2022/02/09 10:50:34;;;;;;;4.47;3.00;;;;;;;;;;4392788;32;20189;-60
2022/02/09 10:53:03;;;;;;;4.35;3.40;;;;;;;;;;4394025;32;20081;-59
2022/02/09 10:55:36;;;;;;;4.53;3.25;;;;;;;;;;4405708;32;20073;-60
2022/02/09 10:58:22;;;;;;;4.95;3.30;;;;;;;;;;4406079;32;20076;-60
2022/02/09 11:00:51;;;;;;;4.57;2.83;;;;;;;;;;4393298;32;20078;-59
2022/02/09 11:03:20;;;;;;;5.03;3.33;;;;;;;;;;4405957;32;20092;-59
2022/02/09 11:05:50;;;;;;;4.12;2.87;;;;;;;;;;4406013;32;20085;-60
2022/02/09 11:08:18;;;;;;;3.92;2.78;;;;;;;;;;4405163;32;20089;-59
2022/02/09 11:10:45;;;;;;;4.80;3.08;;;;;;;;;;4392512;32;20065;-60
2022/02/09 11:13:13;;;;;;;4.45;3.35;;;;;;;;;;4404906;32;20054;-60
2022/02/09 11:15:49;;;;;;;5.62;3.17;;;;;;;;;;4392716;32;20081;-59
2022/02/09 11:18:19;;;;;;;4.78;3.30;;;;;;;;;;4404913;32;20077;-60
2022/02/09 11:21:06;;;;;;;5.10;3.47;;;;;;;;;;4392559;32;20108;-59
2022/02/09 11:23:44;;;;;;;4.35;3.15;;;;;;;;;;4407213;32;20066;-60
2022/02/09 11:26:56;;;;;;;5.05;3.28;;;;;;;;;;4406486;32;20085;-59
2022/02/09 11:32:09;;;;;;;5.78;4.10;;;;;;;;;;4406734;32;20085;-59
2022/02/09 11:34:48;;;;;;;;;;;;;;;;;;4406799;32;20085;-59
2022/02/09 11:37:24;;;;;;;6.57;3.72;;;;;;;;;;4406959;32;19992;-60
2022/02/09 11:39:53;;;;;;;5.35;3.83;;;;;;;;;;4393246;32;20510;-59
2022/02/09 11:42:53;;;;;;;4.85;3.47;;;;;;;;;;4392914;32;20073;-60
2022/02/09 12:11:30;;;;;;;5.47;3.50;;;;;;;;;;4406391;32;20084;-60
2022/02/09 12:19:25;;;;;;;5.68;3.45;;;;;;;;;;4406149;32;20162;-60
2022/02/09 12:21:56;;;;;;;6.07;3.70;;;;;;;;;;4380757;32;20089;-60
2022/02/09 12:24:27;;;;;;;4.95;3.60;;;;;;;;;;4392367;32;20103;-60
2022/02/09 12:27:15;;;;;;;5.72;3.58;;;;;;;;;;4405130;32;20077;-60
2022/02/09 12:29:46;;;;;;;5.87;3.60;;;;;;;;;;4404115;32;20089;-60
2022/02/09 12:32:16;;;;;;;5.85;3.50;;;;;;;;;;4406314;32;20508;-60
2022/02/09 12:34:57;;;;;;;6.32;4.28;;;;;;;;;;4408905;32;20117;-59
2022/02/09 12:37:29;;;;;;;5.10;3.25;;;;;;;;;;4395426;32;20074;-59
2022/02/09 12:40:10;;;;;;;5.70;3.90;;;;;;;;;;4407737;32;20066;-60
2022/02/09 12:42:40;;;;;;;5.32;3.35;;;;;;;;;;4409187;32;20077;-60
2022/02/09 12:45:07;;;;;;;5.70;3.95;;;;;;;;;;4407510;32;20085;-60
2022/02/09 12:47:57;;;;;;;6.55;3.65;;;;;;;;;;4394577;32;20131;-59
2022/02/09 12:50:35;;;;;;;6.03;3.90;;;;;;;;;;4407537;32;20150;-60
2022/02/09 12:53:02;;;;;;;6.05;4.10;;;;;;;;;;4407321;32;20093;-60
2022/02/09 12:55:34;;;;;;;6.72;4.30;;;;;;;;;;4408277;32;20470;-59
2022/02/09 12:58:09;;;;;;;9.85;4.03;;;;;;;;;;4407075;32;20161;-59
2022/02/09 13:00:42;;;;;;;6.40;4.15;;;;;;;;;;4407027;32;20161;-59
2022/02/09 13:03:13;;;;;;;6.53;3.90;;;;;;;;;;4395252;32;20096;-60
2022/02/09 13:05:50;;;;;;;6.55;4.43;;;;;;;;;;4408862;32;20067;-60
2022/02/09 13:08:25;;;;;;;6.32;3.65;;;;;;;;;;4407237;32;20066;-60
2022/02/09 13:11:02;;;;;;;6.90;4.03;;;;;;;;;;4407341;32;20073;-60
2022/02/09 13:13:31;;;;;;;6.43;4.20;;;;;;;;;;4406577;32;20460;-59
2022/02/09 14:13:56;;;;;;;6.40;3.92;;;;;;;;;;4406442;32;20066;-59
2022/02/09 14:16:38;;;;;;;7.28;4.75;;;;;;;;;;4395948;32;20081;-59
2022/02/09 14:50:30;;;;;;;5.80;4.07;;;;;;;;;;4407538;32;20092;-60
2022/02/09 14:52:37;;;;;;;5.87;3.65;;;;;;;;;;4407183;32;20068;-61
2022/02/09 14:58:09;;;;;;;7.03;3.95;;;;;;;;;;4374507;32;20109;-60
2022/02/09 15:00:41;;;;;;;6.62;3.97;;;;;;;;;;4405659;32;20162;-59
2022/02/09 15:06:24;;;;;;;7.78;4.55;;;;;;;;;;4406212;32;20080;-61
2022/02/09 15:13:59;;;;;;;6.12;3.92;;;;;;;;;;4405120;32;20521;-59
2022/02/09 15:16:32;;;;;;;6.90;4.40;;;;;;;;;;4405438;32;20076;-59
2022/02/09 15:24:22;;;;;;;5.72;3.87;;;;;;;;;;4405304;32;20193;-60
2022/02/09 15:26:51;;;;;;;5.95;4.07;;;;;;;;;;4406937;32;20076;-58
2022/02/09 15:29:18;;;;;;;6.45;4.50;;;;;;;;;;4404944;32;20545;-60
2022/02/09 15:31:51;;;;;;;5.93;3.90;;;;;;;;;;4392615;32;20070;-60
2022/02/09 15:34:26;;;;;;;5.47;4.10;;;;;;;;;;4405060;32;20149;-59
2022/02/09 15:37:45;;;;;;;5.87;4.60;;;;;;;;;;4393606;32;20110;-60
2022/02/09 15:39:45;;;;;;;6.93;4.05;;;;;;;;;;4400116;32;20081;-60
2022/02/09 16:07:15;;;;;;;7.40;4.87;;;;;;;;;;4395697;32;20108;-60
2022/02/09 16:09:32;;;;;;;6.57;4.90;;;;;;;;;;4406975;32;20124;-59
2022/02/09 16:20:42;;;;;;;8.20;5.03;;;;;;;;;;4409881;32;20540;-60
2022/02/09 16:22:35;;;;;;;6.87;4.90;;;;;;;;;;4409298;32;20093;-60
2022/02/09 16:46:51;;;;;;;7.30;4.43;;;;;;;;;;4407372;32;20119;-60
2022/02/09 16:49:32;;;;;;;7.35;4.68;;;;;;;;;;4395647;32;20080;-60
2022/02/09 16:52:10;;;;;;;6.68;5.05;;;;;;;;;;4396205;32;20141;-60
2022/02/09 17:18:50;;;;;;;7.05;4.85;;;;;;;;;;4407475;32;20548;-60
2022/02/09 17:21:19;;;;;;;6.95;4.15;;;;;;;;;;4407250;32;20160;-59
2022/02/09 17:23:46;;;;;;;6.72;4.68;;;;;;;;;;4407331;32;20085;-59
2022/02/09 17:26:15;;;;;;;6.80;4.80;;;;;;;;;;4407982;32;20097;-59
2022/02/09 17:28:46;;;;;;;6.93;4.50;;;;;;;;;;4406423;32;20105;-60
2022/02/09 17:31:23;;;;;;;7.60;4.50;;;;;;;;;;4407006;32;20088;-60
2022/02/09 17:36:24;;;;;;;7.75;4.93;;;;;;;;;;4407652;32;20080;-60
2022/02/09 17:55:53;;;;;;;6.57;4.68;;;;;;;;;;4407510;32;20085;-59
2022/02/09 17:58:26;;;;;;;7.00;4.37;;;;;;;;;;4406503;32;20138;-59
2022/02/09 18:00:53;;;;;;;7.78;4.70;;;;;;;;;;4394463;32;20081;-59
2022/02/09 18:03:20;;;;;;;7.80;4.72;;;;;;;;;;4394225;32;20081;-60
2022/02/09 18:05:50;;;;;;;6.50;4.30;;;;;;;;;;4407638;32;20145;-60
2022/02/09 18:08:28;;;;;;;7.00;4.20;;;;;;;;;;4394282;32;20088;-61
2022/02/09 18:16:12;;;;;;;7.18;5.35;;;;;;;;;;4405858;32;20085;-60
2022/02/09 18:29:40;;;;;;;6.25;4.28;;;;;;;;;;4405169;32;20081;-60
2022/02/09 19:02:11;;;;;;;5.53;4.15;;;;;;;;;;4407016;32;20076;-60
2022/02/09 19:04:45;;;;;;;5.45;3.60;;;;;;;;;;4405610;32;20517;-59
2022/02/09 19:20:26;;;;;;;6.30;4.18;;;;;;;;;;4406770;32;20101;-60
2022/02/09 19:31:21;;;;;;;8.88;4.30;;;;;;;;;;4405291;32;20518;-60
2022/02/09 19:47:26;;;;;;;7.90;4.60;;;;;;;;;;4406185;32;20160;-60
2022/02/09 19:50:10;;;;;;;6.07;4.12;;;;;;;;;;4406108;32;20504;-59
2022/02/09 19:53:12;;;;;;;7.12;4.20;;;;;;;;;;4405563;32;20088;-59
2022/02/09 19:55:40;;;;;;;6.62;3.80;;;;;;;;;;4406222;32;20065;-61
2022/02/09 19:58:09;;;;;;;6.28;3.87;;;;;;;;;;4405984;32;20065;-60
2022/02/09 20:00:37;;;;;;;7.65;4.53;;;;;;;;;;4404572;32;20097;-60
2022/02/09 20:03:07;;;;;;;6.93;3.97;;;;;;;;;;4404654;32;20066;-60
2022/02/09 20:05:34;;;;;;;6.28;3.78;;;;;;;;;;4392391;32;20096;-60
2022/02/09 20:08:03;;;;;;;8.30;3.97;;;;;;;;;;4392741;32;20450;-59
2022/02/09 20:10:31;;;;;;;6.32;4.18;;;;;;;;;;4405246;32;20491;-60
2022/02/09 20:12:57;;;;;;;6.97;4.45;;;;;;;;;;4391849;32;20530;-60
2022/02/09 20:15:25;;;;;;;7.05;4.40;;;;;;;;;;4392223;32;20069;-59
2022/02/09 20:17:52;;;;;;;6.85;4.00;;;;;;;;;;4392815;32;20089;-60
2022/02/09 20:20:23;;;;;;;6.45;4.05;;;;;;;;;;4406484;32;20080;-61
2022/02/09 20:22:52;;;;;;;6.80;4.30;;;;;;;;;;4404814;32;20086;-60
2022/02/09 20:25:20;;;;;;;5.93;4.32;;;;;;;;;;4380059;32;20083;-60
2022/02/09 20:27:49;;;;;;;6.07;3.80;;;;;;;;;;4404101;32;20482;-60
2022/02/09 20:30:19;;;;;;;7.03;4.22;;;;;;;;;;4406000;32;20544;-60
2022/02/09 20:32:51;;;;;;;7.43;4.70;;;;;;;;;;4404714;32;20150;-59
2022/02/09 20:35:19;;;;;;;6.30;4.05;;;;;;;;;;4392879;32;20520;-60
2022/02/09 20:37:51;;;;;;;6.25;4.07;;;;;;;;;;4405769;32;20076;-60
2022/02/09 20:42:55;;;;;;;6.55;3.90;;;;;;;;;;4392078;32;20674;-59
2022/02/09 20:45:30;;;;;;;5.80;3.83;;;;;;;;;;4405473;32;20065;-60
2022/02/09 20:48:01;;;;;;;7.12;4.22;;;;;;;;;;4404733;32;20077;-60
2022/02/09 20:50:28;;;;;;;6.10;4.20;;;;;;;;;;4379270;32;20448;-60
2022/02/09 20:52:55;;;;;;;7.82;4.45;;;;;;;;;;4392724;32;20078;-66
2022/02/09 20:55:23;;;;;;;6.20;3.85;;;;;;;;;;4407203;32;20088;-60
2022/02/09 20:57:50;;;;;;;5.37;3.85;;;;;;;;;;4406968;32;20108;-60
2022/02/09 21:00:54;;;;;;;6.28;4.22;;;;;;;;;;4406818;32;20100;-59
2022/02/09 21:08:58;;;;;;;6.70;4.00;;;;;;;;;;4408166;32;20096;-60
2022/02/09 21:11:46;;;;;;;6.07;4.37;;;;;;;;;;4406901;32;20576;-60
2022/02/09 21:14:48;;;;;;;6.93;4.20;;;;;;;;;;4407898;32;20085;-60
2022/02/09 21:33:21;;;;;;;8.15;4.70;;;;;;;;;;4409081;32;20085;-59
2022/02/09 21:54:54;;;;;;;9.52;5.03;;;;;;;;;;4407192;32;20073;-60
2022/02/09 22:26:55;;;;;;;7.75;4.87;;;;;;;;;;4394323;32;20079;-60
2022/02/09 22:32:45;;;;;;;6.85;4.60;;;;;;;;;;4406066;32;20077;-60
2022/02/09 22:56:32;;;;;;;6.32;3.72;;;;;;;;;;4418158;32;20149;-60
2022/02/09 22:59:00;;;;;;;7.00;4.30;;;;;;;;;;4418317;32;20066;-59
2022/02/09 23:07:00;;;;;;;6.45;3.97;;;;;;;;;;4424121;32;20178;-61
2022/02/09 23:12:20;;;;;;;7.03;4.25;;;;;;;;;;4421644;32;20089;-60
2022/02/09 23:14:56;;;;;;;6.15;4.28;;;;;;;;;;4405244;32;20108;-61
2022/02/09 23:28:53;;;;;;;5.37;3.80;;;;;;;;;;4419633;32;20077;-59
